MMDO/DGO METAR and TAF weather

Enter ICAO airport designator
Station Type Date Time Source
MMDO METAR 2021/04/18 01:45 UTC NOAA

MMDO 180145Z 21010KT 10SM SKC 23/M12 A3001


Station Type Date Time Source
MMDO Decoded METAR 2021/04/18 01:45 UTC NOAA

Durango Airport, Mexico (MMDO) 24-08N 104-32W
Apr 17, 2021 - 09:45 PM EDT / 2021.04.18 0145 UTC
Wind: from the SSW (210 degrees) at 12 MPH (10 KT):0
Visibility: 10 mile(s):0
Sky conditions: clear
Temperature: 73 F (23 C)
Dew Point: 10 F (-12 C)
Relative Humidity: 8%
Pressure (altimeter): 30.01 in. Hg (1016 hPa)
ob: MMDO 180145Z 21010KT 10SM SKC 23/M12 A3001
cycle: 2

Station Type Date Time Source
MMDO TAF 2021/04/17 18:58 UTC NOAA

TAF MMDO 171658Z 1718/1818 20010KT P6SM SKC
FM172100 23020KT P6SM SKC
FM180200 18010KT P6SM SKC

Example: see airport list